Map

Track Data

SID SEASON NUMBER BASIN SUBBASIN NAME ISO_TIME NATURE LAT LON WMO_WIND WMO_PRES WMO_AGENCY TRACK_TYPE DIST2LAND LANDFALL IFLAG USA_AGENCY USA_ATCF_ID USA_LAT USA_LON USA_RECORD USA_STATUS USA_WIND USA_PRES USA_SSHS USA_R34_NE USA_R34_SE USA_R34_SW USA_R34_NW USA_R50_NE USA_R50_SE USA_R50_SW USA_R50_NW USA_R64_NE USA_R64_SE USA_R64_SW USA_R64_NW USA_POCI USA_ROCI USA_RMW USA_EYE TOKYO_LAT TOKYO_LON TOKYO_GRADE TOKYO_WIND TOKYO_PRES TOKYO_R50_DIR TOKYO_R50_LONG TOKYO_R50_SHORT TOKYO_R30_DIR TOKYO_R30_LONG TOKYO_R30_SHORT TOKYO_LAND CMA_LAT CMA_LON CMA_CAT CMA_WIND CMA_PRES HKO_LAT HKO_LON HKO_CAT HKO_WIND HKO_PRES NEWDELHI_LAT NEWDELHI_LON NEWDELHI_GRADE NEWDELHI_WIND NEWDELHI_PRES NEWDELHI_CI NEWDELHI_DP NEWDELHI_POCI REUNION_LAT REUNION_LON REUNION_TYPE REUNION_WIND REUNION_PRES REUNION_TNUM REUNION_CI REUNION_RMW REUNION_R34_NE REUNION_R34_SE REUNION_R34_SW REUNION_R34_NW REUNION_R50_NE REUNION_R50_SE REUNION_R50_SW REUNION_R50_NW REUNION_R64_NE REUNION_R64_SE REUNION_R64_SW REUNION_R64_NW BOM_LAT BOM_LON BOM_TYPE BOM_WIND BOM_PRES BOM_TNUM BOM_CI BOM_RMW BOM_R34_NE BOM_R34_SE BOM_R34_SW BOM_R34_NW BOM_R50_NE BOM_R50_SE BOM_R50_SW BOM_R50_NW BOM_R64_NE BOM_R64_SE BOM_R64_SW BOM_R64_NW BOM_ROCI BOM_POCI BOM_EYE BOM_POS_METHOD BOM_PRES_METHOD NADI_LAT NADI_LON NADI_CAT NADI_WIND NADI_PRES WELLINGTON_LAT WELLINGTON_LON WELLINGTON_WIND WELLINGTON_PRES DS824_LAT DS824_LON DS824_STAGE DS824_WIND DS824_PRES TD9636_LAT TD9636_LON TD9636_STAGE TD9636_WIND TD9636_PRES TD9635_LAT TD9635_LON TD9635_WIND TD9635_PRES TD9635_ROCI NEUMANN_LAT NEUMANN_LON NEUMANN_CLASS NEUMANN_WIND NEUMANN_PRES MLC_LAT MLC_LON MLC_CLASS MLC_WIND MLC_PRES USA_GUST BOM_GUST BOM_GUST_PER REUNION_GUST REUNION_GUST_PER USA_SEAHGT USA_SEARAD_NE USA_SEARAD_SE USA_SEARAD_SW USA_SEARAD_NW STORM_SPEED STORM_DIR
1879225N13302 1879 12 NA NA NOT_NAMED 1879-08-12 12:00:00 TS 13.1000 -57.6000 main 457 429 _____________O -1 13.1000 -57.6000 TD 30 13 298
1879225N13302 1879 12 NA NA NOT_NAMED 1879-08-12 15:00:00 TS 13.4103 -58.2021 main 429 409 _____________P -1 13.4103 -58.2021 TD 30 13 297
1879225N13302 1879 12 NA NA NOT_NAMED 1879-08-12 18:00:00 TS 13.7000 -58.8000 main 412 388 _____________O -1 13.7000 -58.8000 TD 30 13 295
1879225N13302 1879 12 NA NA NOT_NAMED 1879-08-12 21:00:00 TS 13.9573 -59.3927 main 408 408 _____________P -1 13.9573 -59.3927 TD 32 22 346
1879225N13302 1879 12 NA NA NOT_NAMED 1879-08-13 00:00:00 TS 15.8000 -59.3333 40 hurdat_atl main 599 599 O____________O hurdat_atl AL021879 19.0000 -58.0000 TS 40 0 14.2000 -60.0000 TS 35 28 356
1879225N13302 1879 12 NA NA NOT_NAMED 1879-08-13 03:00:00 TS 16.7177 -59.5826 main 658 612 P____________P AL021879 19.0004 -58.5075 TS 40 0 14.4350 -60.6577 TS 35 16 339
1879225N13302 1879 12 NA NA NOT_NAMED 1879-08-13 06:00:00 TS 17.2800 -59.9200 40 hurdat_atl main 612 574 O____________O hurdat_atl AL021879 19.0000 -59.0000 TS 40 0 14.7000 -61.3000 TS 35 12 326
1879225N13302 1879 12 NA NA NOT_NAMED 1879-08-13 09:00:00 TS 17.6780 -60.2734 main 563 509 P____________P AL021879 18.9997 -59.4775 TS 40 0 15.0348 -61.8651 TS 37 10 302
1879225N13302 1879 12 NA NA NOT_NAMED 1879-08-13 12:00:00 TS 17.8000 -60.8000 40 hurdat_atl main 509 445 O____________O hurdat_atl AL021879 19.0000 -60.0000 TS 40 0 15.4000 -62.4000 TS 40 11 282
1879225N13302 1879 12 NA CS NOT_NAMED 1879-08-13 15:00:00 TS 17.9114 -61.3868 main 445 381 P____________P AL021879 18.9922 -60.6051 TS 40 0 15.7499 -62.9502 TS 40 12 281
1879225N13302 1879 12 NA CS NOT_NAMED 1879-08-13 18:00:00 TS 18.0333 -62.0333 40 hurdat_atl main 381 306 O____________O hurdat_atl AL021879 19.0000 -61.3000 TS 40 0 16.1000 -63.5000 TS 40 13 282
1879225N13302 1879 12 NA CS NOT_NAMED 1879-08-13 21:00:00 TS 18.1782 -62.7325 main 306 232 P____________P AL021879 19.0424 -62.0775 TS 40 0 16.4498 -64.0427 TS 42 14 282
1879225N13302 1879 12 NA CS NOT_NAMED 1879-08-14 00:00:00 TS 18.3333 -63.4667 40 hurdat_atl main 221 148 O____________O hurdat_atl AL021879 19.1000 -62.9000 TS 40 0 16.8000 -64.6000 TS 45 15 282
1879225N13302 1879 12 NA CS NOT_NAMED 1879-08-14 03:00:00 TS 18.4884 -64.2250 main 148 77 P____________P AL021879 19.1576 -63.7374 TS 40 0 17.1500 -65.2001 TS 45 14 282
1879225N13302 1879 12 NA CS NOT_NAMED 1879-08-14 06:00:00 TS 18.6333 -64.9333 40 hurdat_atl main 77 35 O____________O hurdat_atl AL021879 19.2000 -64.5000 TS 40 0 17.5000 -65.8000 TS 45 12 282
1879225N13302 1879 12 NA CS NOT_NAMED 1879-08-14 09:00:00 TS 18.7395 -65.5061 main 35 35 P____________P AL021879 19.1844 -65.0803 TS 40 0 17.8498 -66.3578 TS 45 11 283
1879225N13302 1879 12 NA NA NOT_NAMED 1879-08-14 12:00:00 TS 18.8667 -66.0333 40 hurdat_atl main 55 55 O____________O hurdat_atl AL021879 19.2000 -65.6000 TS 40 0 18.2000 -66.9000 TS 45 11 288
1879225N13302 1879 12 NA NA NOT_NAMED 1879-08-14 15:00:00 TS 19.0732 -66.6091 main 78 78 P____________P AL021879 19.3349 -66.1923 TS 40 0 18.5498 -67.4428 TS 47 12 291
1879225N13302 1879 12 NA NA NOT_NAMED 1879-08-14 18:00:00 TS 19.3000 -67.2000 40 hurdat_atl main 100 100 O____________O hurdat_atl AL021879 19.5000 -66.8000 TS 40 0 18.9000 -68.0000 TS 50 12 290
1879225N13302 1879 12 NA NA NOT_NAMED 1879-08-14 21:00:00 TS 19.4783 -67.8102 main 113 94 P____________P AL021879 19.5924 -67.4153 TS 40 0 19.2499 -68.6002 TS 50 12 288
1879225N13302 1879 12 NA NA NOT_NAMED 1879-08-15 00:00:00 TS 19.6667 -68.4000 40 hurdat_atl main 98 76 O____________O hurdat_atl AL021879 19.7000 -68.0000 TS 40 0 19.6000 -69.2000 TS 50 11 292
1879225N13302 1879 12 NA NA NOT_NAMED 1879-08-15 03:00:00 TS 19.9064 -68.9268 main 79 74 P____________P AL021879 19.8847 -68.5150 TS 40 0 19.9497 -69.7503 TS 50 11 297
1879225N13302 1879 12 NA NA NOT_NAMED 1879-08-15 06:00:00 TS 20.1667 -69.4333 40 hurdat_atl main 91 78 O____________O hurdat_atl AL021879 20.1000 -69.0000 TS 40 0 20.3000 -70.3000 TS 50 11 297
1879225N13302 1879 12 NA NA NOT_NAMED 1879-08-15 09:00:00 TS 20.3991 -69.9719 main 88 84 P____________P AL021879 20.2773 -69.4929 TS 45 0 20.6427 -70.9300 TS 52 11 297
1879225N13302 1879 12 NA NA NOT_NAMED 1879-08-15 12:00:00 TS 20.6667 -70.5000 50 hurdat_atl main 101 100 O____________O hurdat_atl AL021879 20.5000 -70.0000 TS 50 0 21.0000 -71.5000 TS 55 11 303
1879225N13302 1879 12 NA NA NOT_NAMED 1879-08-15 15:00:00 TS 21.0282 -70.9958 main 134 134 P____________P AL021879 20.8425 -70.5498 TS 50 0 21.3996 -71.8878 TS 57 12 309
1879225N13302 1879 12 NA NA NOT_NAMED 1879-08-15 18:00:00 TS 21.4000 -71.4667 50 hurdat_atl main 156 122 O____________O hurdat_atl AL021879 21.2000 -71.1000 TS 50 0 21.8000 -72.2000 TS 60 11 307
1879225N13302 1879 12 NA NA NOT_NAMED 1879-08-15 21:00:00 TS 21.6782 -71.9321 main 126 106 P____________P AL021879 21.4424 -71.6230 TS 55 0 22.1499 -72.5503 TS 60 10 304
1879225N13302 1879 12 NA NA NOT_NAMED 1879-08-16 00:00:00 TS 21.9667 -72.3667 60 hurdat_atl main 108 103 O____________O hurdat_atl AL021879 21.7000 -72.1000 TS 60 0 22.5000 -72.9000 TS 60 10 311
1879225N13302 1879 12 NA NA NOT_NAMED 1879-08-16 03:00:00 TS 22.3565 -72.7650 main 135 135 P____________P AL021879 22.0848 -72.5225 TS 60 0 22.8999 -73.2501 TS 62 11 318
1879225N13302 1879 12 NA NA NOT_NAMED 1879-08-16 06:00:00 TS 22.7667 -73.1333 60 hurdat_atl main 178 178 O____________O hurdat_atl AL021879 22.5000 -72.9000 TS 60 0 23.3000 -73.6000 HU 65 10 319
1879225N13302 1879 12 NA NA NOT_NAMED 1879-08-16 09:00:00 TS 23.1064 -73.4739 main 214 214 P____________P AL021879 22.8347 -73.2357 TS 65 1 23.6499 -73.9503 HU 67 10 317
1879225N13302 1879 12 NA NA NOT_NAMED 1879-08-16 12:00:00 TS 23.4667 -73.8333 70 hurdat_atl main 264 264 O____________O hurdat_atl AL021879 23.2000 -73.6000 HU 70 1 24.0000 -74.3000 HU 70 11 318
1879225N13302 1879 12 NA NA NOT_NAMED 1879-08-16 15:00:00 TS 23.9183 -74.2659 main 319 303 P____________P AL021879 23.6775 -74.0774 HU 70 1 24.3999 -74.6427 HU 70 12 319
1879225N13302 1879 12 NA NA NOT_NAMED 1879-08-16 18:00:00 TS 24.4000 -74.7333 70 hurdat_atl main 303 263 O____________O hurdat_atl AL021879 24.2000 -74.6000 HU 70 1 24.8000 -75.0000 HU 70 12 317
1879225N13302 1879 12 NA NA NOT_NAMED 1879-08-16 21:00:00 TS 24.8096 -75.1688 main 254 225 P____________P AL021879 24.6771 -75.0785 HU 75 1 25.0745 -75.3495 HU 75 12 317
1879225N13302 1879 12 NA NA NOT_NAMED 1879-08-17 00:00:00 TS 25.3000 -75.6667 80 hurdat_atl main 220 192 O____________O hurdat_atl AL021879 25.2000 -75.6000 HU 80 1 25.5000 -75.8000 HU 80 16 318
1879225N13302 1879 12 NA NA NOT_NAMED 1879-08-17 03:00:00 TS 25.9988 -76.3349 main 197 189 P____________P AL021879 25.8355 -76.2717 HU 80 1 26.3254 -76.4613 HU 80 19 321
1879225N13302 1879 12 NA NA NOT_NAMED 1879-08-17 06:00:00 TS 26.7667 -77.0000 80 hurdat_atl main 214 210 O____________O hurdat_atl AL021879 26.5000 -76.9000 HU 80 1 27.3000 -77.2000 HU 80 18 324
1879225N13302 1879 12 NA NA NOT_NAMED 1879-08-17 09:00:00 TS 27.4573 -77.5131 main 259 247 P____________P AL021879 27.0769 -77.2891 HU 85 2 28.2179 -77.9609 HU 85 16 330
1879225N13302 1879 12 NA NA NOT_NAMED 1879-08-17 12:00:00 TS 28.1333 -77.9000 90 hurdat_atl main 247 224 O____________O hurdat_atl AL021879 27.7000 -77.6000 HU 90 2 29.0000 -78.5000 HU 90 15 335
1879225N13302 1879 12 NA NA NOT_NAMED 1879-08-17 15:00:00 TS 28.8017 -78.2273 main 226 218 P____________P AL021879 28.4478 -78.0513 HU 90 2 29.5094 -78.5793 HU 90 14 342
1879225N13302 1879 12 NA NA NOT_NAMED 1879-08-17 18:00:00 TS 29.5000 -78.4000 90 hurdat_atl main 232 232 O____________O hurdat_atl AL021879 29.3000 -78.4000 HU 90 2 29.9000 -78.4000 HU 90 15 354
1879225N13302 1879 12 NA NA NOT_NAMED 1879-08-17 21:00:00 TS 30.2807 -78.4037 main 275 239 P____________P AL021879 30.2497 -78.4980 HU 95 2 30.3426 -78.2152 HU 95 16 4
1879225N13302 1879 12 NA NA NOT_NAMED 1879-08-18 00:00:00 TS 31.0667 -78.2667 100 hurdat_atl main 231 189 O____________O hurdat_atl AL021879 31.2000 -78.4000 HU 100 3 30.8000 -78.0000 MH 100 15 9
1879225N13302 1879 12 NA NA NOT_NAMED 1879-08-18 03:00:00 TS 31.7313 -78.1233 main 189 150 P____________P AL021879 32.0147 -78.2316 HU 100 3 31.1646 -77.9066 MH 100 15 15
1879225N13302 1879 12 NA NA NOT_NAMED 1879-08-18 06:00:00 TS 32.4667 -77.8333 100 hurdat_atl main 152 86 O____________O hurdat_atl AL021879 32.8000 -77.9000 HU 100 3 31.8000 -77.7000 MH 100 18 22
1879225N13302 1879 12 NA NA NOT_NAMED 1879-08-18 09:00:00 TS 33.3735 -77.3401 main 85 33 P____________P AL021879 33.5600 -77.4150 HU 100 3 33.0004 -77.1904 MH 100 22 25
1879225N13302 1879 12 NA NA NOT_NAMED 1879-08-18 12:00:00 TS 34.5000 -76.7000 100 971 hurdat_atl main 22 0 O____________O hurdat_atl AL021879 34.5000 -76.8000 L HU 100 971 3 34.5000 -76.5000 MH 100 971 28 23
1879225N13302 1879 12 NA NA NOT_NAMED 1879-08-18 15:00:00 TS 35.9199 -76.0524 main 0 0 P____________P AL021879 35.8617 -76.1670 HU 95 975 2 36.0363 -75.8232 MH 95 975 31 22
1879225N13302 1879 12 NA NA NOT_NAMED 1879-08-18 18:00:00 TS 37.3667 -75.2667 90 979 hurdat_atl main 36 36 O____________O hurdat_atl AL021879 37.3000 -75.4000 HU 90 979 2 37.5000 -75.0000 HU 90 979 30 28
1879225N13302 1879 12 NA NA NOT_NAMED 1879-08-18 21:00:00 TS 38.5335 -74.3053 main 68 61 P____________P AL021879 38.4663 -74.4866 HU 85 981 2 38.6678 -73.9427 HU 85 981 27 36
1879225N13302 1879 12 NA NA NOT_NAMED 1879-08-19 00:00:00 TS 39.5667 -73.2000 80 984 hurdat_atl main 86 47 O____________O hurdat_atl AL021879 39.5000 -73.4000 HU 80 984 1 39.7000 -72.8000 HU 80 984 27 41
1879225N13302 1879 12 NA NA NOT_NAMED 1879-08-19 03:00:00 TS 40.5659 -72.0432 main 55 8 P____________P AL021879 40.4719 -72.1564 HU 75 984 1 40.7538 -71.8169 HU 75 984 27 43
1879225N13302 1879 12 NA NA NOT_NAMED 1879-08-19 06:00:00 TS 41.5333 -70.7667 70 984 hurdat_atl main 8 0 O____________O hurdat_atl AL021879 41.4000 -70.8000 L HU 70 984 1 41.8000 -70.7000 HU 70 984 28 46
1879225N13302 1879 12 NA NA NOT_NAMED 1879-08-19 09:00:00 TS 42.5362 -69.3335 main 96 96 P____________P AL021879 42.3793 -69.3992 HU 65 1 42.8500 -69.2022 HU 65 29 48
1879225N13302 1879 12 NA NA NOT_NAMED 1879-08-19 12:00:00 TS 43.5000 -67.8333 60 hurdat_atl main 92 26 O____________O hurdat_atl AL021879 43.3000 -68.0000 TS 60 0 43.9000 -67.5000 TS 60 28 50
1879225N13302 1879 12 NA NA NOT_NAMED 1879-08-19 15:00:00 TS 44.3580 -66.3730 main 15 0 P____________P AL021879 44.0599 -66.7570 TS 60 0 44.9541 -65.6049 TS 55 27 51
1879225N13302 1879 12 NA NA NOT_NAMED 1879-08-19 18:00:00 TS 45.2000 -64.9333 60 hurdat_atl main 11 0 O____________O hurdat_atl AL021879 44.8000 -65.4000 TS 60 0 46.0000 -64.0000 TS 50 27 49
1879225N13302 1879 12 NA NA NOT_NAMED 1879-08-19 21:00:00 TS 46.1061 -63.4809 main 11 0 P____________P AL021879 45.6368 -63.6101 TS 60 0 47.0447 -63.2226 TS 45 27 50
1879225N13302 1879 12 NA NA NOT_NAMED 1879-08-20 00:00:00 MX 46.9364 -62.0000 60 hurdat_atl main 56 56 O____________O hurdat_atl AL021879 46.5000 -61.7000 TS 60 0 48.1000 -62.8000 EX 40 26 52
1879225N13302 1879 12 NA NA NOT_NAMED 1879-08-20 03:00:00 MX 47.7439 -60.4206 main 77 13 P____________P AL021879 47.3916 -59.9684 TS 60 0 49.1531 -62.2291 EX 40 27 57
1879225N13302 1879 12 NA NA NOT_NAMED 1879-08-20 06:00:00 MX 48.4222 -58.6556 60 hurdat_atl main 7 0 O____________O hurdat_atl AL021879 48.2000 -58.3000 TS 60 0 50.2000 -61.5000 EX 40 27 67
1879225N13302 1879 12 NA NA NOT_NAMED 1879-08-20 09:00:00 TS 48.8065 -56.6504 main 0 0 P_____________ AL021879 48.8065 -56.6504 TS 55 0 EX 26 70
1879225N13302 1879 12 NA NA NOT_NAMED 1879-08-20 12:00:00 TS 49.3000 -55.0000 50 hurdat_atl main 7 0 O_____________ hurdat_atl AL021879 49.3000 -55.0000 TS 50 0 24 67
1879225N13302 1879 12 NA NA NOT_NAMED 1879-08-20 15:00:00 TS 49.7611 -53.2807 main 57 57 P_____________ AL021879 49.7611 -53.2807 TS 50 0 24 68
1879225N13302 1879 12 NA NA NOT_NAMED 1879-08-20 18:00:00 TS 50.2000 -51.5000 50 hurdat_atl main 174 O_____________ hurdat_atl AL021879 50.2000 -51.5000 TS 50 0 24 69

About IBTrACS Database

This database is a web-friendly format of International Best Track Archive for Climate Stewardship (IBTrACS), a global best track data archive curated by NOAA dating back to 1842.

Updated: 2021-12-01